Britts, South Carolina
Current Conditions -  °F | °C
As of 4:15 AM on Monday 24 Nov 2014 (Local Time) from KGRD Reporting Station
Scattered Clouds Scattered Clouds  
Wind Chill: 60°   Ceiling: Unl
Heat Index: 60°   Visibility: 10mi
Dew Point: 57°   Wind: 12mph
Humidity: 90%   Direction: 210°SSW
Pressure: 29.79"   Gusts: NA
Location:  33.9231°N, 82.2423°W
Report Text: KGRD 240915Z AUTO 21010KT 10SM SCT019 16/14 A2979 RMK AO2 T01560139
Loading
Personal Weather Stations






























Interactive Weather Map New forecast layout! Learn more

10-Day Weather Forecast

Advertisements
Track Severe Weather on mobile